Portada
METAR-TAF:

METAR-TAF

Aeroports :

Warren Field Airport

Washington, Carolina del Nord, Estats Units d'Amèrica

latitud: 35-34-14N, longitud: 077-02-59W, altitud: 12 m

Observació

L'informe es va fer fa 1 hora i 6 minuts, a les 21:35 UTC
Vent 4 kt del Nord/Nord-Est
Temperatura 4°C
Humitat 41%
Pressió 1029 hPa
Visibilitat: 16.1 km
Cel clar

METAR: KOCW 132135Z AUTO 03004KT 10SM CLR 04/M08 A3040 RMK AO2 T00361079

Hora: 17:41 (22:41 UTC)


TAF: manca

Observacions i pronòstics meteorològics de més de 4000 aeroports (METAR i TAF).

Les estacions disponibles són els punts grocs i vermells al mapa.

Posi el ratolí al punt desitjat per veure el nom de l'estació.

Feu clic per veure les observacions i els pronòstics meteorològics.

Per canviar el mapa: feu clic els botons verds amb una creu de color negre per apropar; al botó verd amb un guió per allunyar la imatge; o en les fletxes verdes per a mapes adjacents.


METAR-TAF: